Time;durP1;ratioP1;P1;durP2;ratioP2;P2;SDS_P1;SDS_P2;PMS_P1;PMS_P2;Temp;Humidity;BMP_temperature;BMP_pressure;BME280_temperature;BME280_humidity;BME280_pressure;Samples;Min_cycle;Max_cycle;Signal;HPM_P1;HPM_P2
2023/12/27 00:00:29;;;;;;;5.72;3.70;;;8.30;86.90;;;;;;7378787;19;20002;-71
2023/12/27 00:03:00;;;;;;;8.00;3.80;;;8.30;85.50;;;;;;7379330;19;20040;-71
2023/12/27 00:05:31;;;;;;;5.78;3.55;;;8.30;81.20;;;;;;7378361;19;20078;-71
2023/12/27 00:08:03;;;;;;;4.68;3.80;;;8.30;75.00;;;;;;7378478;19;20032;-71
2023/12/27 00:10:33;;;;;;;6.15;3.45;;;8.30;63.70;;;;;;7378164;19;20014;-70
2023/12/27 00:13:03;;;;;;;8.40;3.78;;;8.30;60.70;;;;;;7377663;19;20036;-72
2023/12/27 00:15:33;;;;;;;6.97;3.78;;;8.30;67.20;;;;;;7378332;19;20011;-71
2023/12/27 00:18:03;;;;;;;6.72;3.67;;;8.30;64.00;;;;;;7378465;19;20013;-71
2023/12/27 00:20:34;;;;;;;5.90;3.30;;;8.20;63.90;;;;;;7379113;19;20032;-71
2023/12/27 00:23:06;;;;;;;6.97;3.08;;;8.20;59.60;;;;;;7379718;19;20007;-70
2023/12/27 00:25:37;;;;;;;6.22;3.05;;;8.20;63.90;;;;;;7379827;19;20014;-71
2023/12/27 00:28:07;;;;;;;3.88;2.78;;;8.20;79.30;;;;;;7379150;19;20018;-71
2023/12/27 00:30:37;;;;;;;6.53;3.05;;;8.10;93.50;;;;;;7379366;19;20017;-71
2023/12/27 00:33:07;;;;;;;8.45;3.35;;;8.10;96.00;;;;;;7378611;19;20011;-71
2023/12/27 00:35:37;;;;;;;6.45;3.72;;;8.10;99.90;;;;;;7379253;19;20007;-71
2023/12/27 00:38:10;;;;;;;7.25;4.05;;;8.10;99.90;;;;;;7378712;19;20074;-70
2023/12/27 00:40:40;;;;;;;6.50;3.92;;;8.00;99.90;;;;;;7377840;19;20111;-70
2023/12/27 00:43:10;;;;;;;5.53;3.75;;;8.00;99.90;;;;;;7379651;19;20039;-70
2023/12/27 00:45:40;;;;;;;8.98;4.28;;;7.90;99.90;;;;;;7378354;19;20021;-71
2023/12/27 00:48:10;;;;;;;5.40;4.03;;;8.00;99.90;;;;;;7377101;19;20031;-71
2023/12/27 00:50:40;;;;;;;7.38;4.05;;;7.90;99.90;;;;;;7377487;19;20014;-71
2023/12/27 00:53:13;;;;;;;6.22;4.10;;;7.90;99.90;;;;;;7377882;19;20022;-71
2023/12/27 00:55:44;;;;;;;4.72;3.60;;;7.90;99.90;;;;;;7378206;19;20014;-71
2023/12/27 00:58:14;;;;;;;5.13;3.58;;;7.90;99.90;;;;;;7378275;19;20010;-71
2023/12/27 01:00:44;;;;;;;5.60;4.45;;;8.00;99.90;;;;;;7377190;19;20075;-71
2023/12/27 01:03:14;;;;;;;8.65;4.10;;;8.00;99.90;;;;;;7377852;19;20034;-72
2023/12/27 01:05:44;;;;;;;10.63;4.38;;;7.90;99.90;;;;;;7377667;19;20014;-73
2023/12/27 01:08:17;;;;;;;7.90;3.60;;;7.90;99.90;;;;;;7376274;19;20010;-72
2023/12/27 01:10:47;;;;;;;6.88;3.95;;;7.90;99.90;;;;;;7377863;19;20022;-71
2023/12/27 01:13:17;;;;;;;4.95;3.50;;;8.00;99.90;;;;;;7377624;19;20007;-70
2023/12/27 01:15:47;;;;;;;5.70;3.13;;;7.90;99.90;;;;;;7376943;19;20086;-69
2023/12/27 01:18:17;;;;;;;4.97;3.38;;;7.90;99.90;;;;;;7377416;19;20026;-72
2023/12/27 01:20:47;;;;;;;5.13;2.85;;;8.00;99.90;;;;;;7375108;19;24968;-71
2023/12/27 01:23:20;;;;;;;5.53;3.30;;;7.90;99.90;;;;;;7375920;19;20017;-72
2023/12/27 01:25:50;;;;;;;3.33;2.60;;;7.90;99.90;;;;;;7376423;19;20013;-71
2023/12/27 01:28:21;;;;;;;4.35;2.85;;;7.90;99.90;;;;;;7376121;19;20090;-71
2023/12/27 01:30:50;;;;;;;6.60;3.20;;;8.00;99.90;;;;;;7377255;19;20032;-71
2023/12/27 01:33:21;;;;;;;6.47;3.38;;;8.00;99.90;;;;;;7376707;19;20018;-70
2023/12/27 01:35:51;;;;;;;5.63;3.40;;;8.00;99.90;;;;;;7376792;19;20010;-71
2023/12/27 01:38:24;;;;;;;5.60;2.58;;;8.10;99.90;;;;;;7374355;19;20014;-73
2023/12/27 01:40:54;;;;;;;7.35;3.45;;;8.10;99.90;;;;;;7376450;19;20007;-70
2023/12/27 01:43:24;;;;;;;4.40;2.88;;;8.10;99.90;;;;;;7375108;19;20509;-70
2023/12/27 01:45:54;;;;;;;4.15;2.83;;;8.10;99.90;;;;;;7376833;19;20011;-71
2023/12/27 01:48:25;;;;;;;6.85;2.80;;;8.00;99.90;;;;;;7376527;19;20015;-70
2023/12/27 01:50:57;;;;;;;5.93;2.80;;;7.90;99.90;;;;;;7378826;19;20006;-70
2023/12/27 01:53:31;;;;;;;4.43;2.97;;;8.00;99.90;;;;;;7380359;19;20363;-70
2023/12/27 01:56:02;;;;;;;6.30;2.92;;;7.90;99.90;;;;;;7377159;19;20858;-71
2023/12/27 01:58:33;;;;;;;4.50;2.90;;;7.90;99.90;;;;;;7375702;19;20018;-71
2023/12/27 02:01:03;;;;;;;7.80;3.00;;;7.90;99.90;;;;;;7375141;19;20023;-70
2023/12/27 02:03:33;;;;;;;4.93;2.97;;;7.80;99.90;;;;;;7375082;19;20036;-70
2023/12/27 02:06:04;;;;;;;4.25;2.80;;;7.70;99.90;;;;;;7375862;19;20046;-70
2023/12/27 02:08:37;;;;;;;6.15;3.03;;;7.70;99.90;;;;;;7375478;19;20019;-71
2023/12/27 02:11:07;;;;;;;4.63;3.08;;;7.60;99.90;;;;;;7375479;19;20493;-70
2023/12/27 02:13:37;;;;;;;4.18;3.00;;;7.60;99.90;;;;;;7375656;19;20006;-71
2023/12/27 02:16:08;;;;;;;5.25;3.13;;;7.50;99.90;;;;;;7374799;19;20025;-70
2023/12/27 02:18:40;;;;;;;6.47;3.38;;;7.50;99.90;;;;;;7374895;19;20049;-70
2023/12/27 02:21:10;;;;;;;6.10;2.95;;;7.50;99.90;;;;;;7375656;19;20084;-72
2023/12/27 02:23:44;;;;;;;9.63;3.60;;;7.40;99.90;;;;;;7374349;19;20031;-70
2023/12/27 02:26:17;;;;;;;7.18;3.10;;;7.40;99.90;;;;;;7374759;19;20074;-70
2023/12/27 02:28:47;;;;;;;4.75;3.25;;;7.40;99.90;;;;;;7374244;19;20116;-70
2023/12/27 02:31:17;;;;;;;5.70;2.92;;;7.30;99.90;;;;;;7375582;19;20035;-71
2023/12/27 02:33:47;;;;;;;4.72;2.83;;;7.30;99.90;;;;;;7382001;19;20010;-69
2023/12/27 02:36:18;;;;;;;7.93;4.00;;;7.20;99.90;;;;;;7381718;19;20010;-70
2023/12/27 02:38:48;;;;;;;5.00;3.17;;;7.20;99.90;;;;;;7381076;19;20010;-70
2023/12/27 02:41:20;;;;;;;3.97;3.33;;;7.10;99.90;;;;;;7381762;19;20015;-70
2023/12/27 02:43:50;;;;;;;5.88;3.83;;;7.00;99.90;;;;;;7382359;19;20011;-71
2023/12/27 02:46:20;;;;;;;4.97;3.63;;;7.00;99.90;;;;;;7381956;19;20467;-70
2023/12/27 02:48:51;;;;;;;5.28;3.53;;;7.00;99.90;;;;;;7381016;19;20087;-70
2023/12/27 02:51:21;;;;;;;5.88;3.85;;;6.90;99.90;;;;;;7381267;19;20471;-71
2023/12/27 02:53:51;;;;;;;8.15;5.20;;;7.00;99.90;;;;;;7380763;19;20507;-70
2023/12/27 02:56:24;;;;;;;9.27;4.10;;;7.00;99.90;;;;;;7380805;19;20017;-70
2023/12/27 02:58:54;;;;;;;7.00;3.85;;;7.00;99.90;;;;;;7380468;19;20022;-70
2023/12/27 03:01:24;;;;;;;7.10;4.50;;;7.10;99.90;;;;;;7380713;19;20010;-71
2023/12/27 03:03:54;;;;;;;7.38;4.15;;;7.10;99.90;;;;;;7380334;19;20010;-71
2023/12/27 03:06:24;;;;;;;8.27;4.78;;;7.10;99.90;;;;;;7380085;19;20043;-71
2023/12/27 03:08:54;;;;;;;7.90;4.22;;;7.10;99.90;;;;;;7378548;19;20010;-70
2023/12/27 03:11:27;;;;;;;6.97;4.38;;;7.10;99.90;;;;;;7380689;19;20085;-71
2023/12/27 03:13:57;;;;;;;8.00;4.03;;;7.00;99.90;;;;;;7382271;19;20010;-71
2023/12/27 03:16:28;;;;;;;9.13;4.25;;;7.00;99.90;;;;;;7381307;19;20131;-70
2023/12/27 03:18:59;;;;;;;8.32;4.43;;;7.00;99.90;;;;;;7379716;19;20010;-71
2023/12/27 03:21:30;;;;;;;7.20;5.28;;;6.90;99.90;;;;;;7382503;19;20012;-71
2023/12/27 03:24:00;;;;;;;7.47;5.22;;;7.00;99.90;;;;;;7380353;19;20007;-71
2023/12/27 03:26:32;;;;;;;7.95;4.88;;;6.90;99.90;;;;;;7382100;19;20011;-71
2023/12/27 03:29:03;;;;;;;10.07;5.30;;;6.90;99.90;;;;;;7379508;19;20467;-72
2023/12/27 03:31:33;;;;;;;7.20;5.13;;;6.90;99.90;;;;;;7380323;19;20006;-69
2023/12/27 03:34:03;;;;;;;13.13;5.70;;;6.90;99.90;;;;;;7379026;19;20071;-70
2023/12/27 03:36:33;;;;;;;10.45;5.22;;;6.80;99.90;;;;;;7380234;19;20077;-71
2023/12/27 03:39:03;;;;;;;9.27;5.68;;;6.80;99.90;;;;;;7382384;19;20032;-70
2023/12/27 03:41:36;;;;;;;10.70;5.60;;;6.80;99.90;;;;;;7379528;19;20006;-70
2023/12/27 03:44:09;;;;;;;11.77;6.00;;;6.80;99.90;;;;;;7375122;19;20570;-70
2023/12/27 03:46:39;;;;;;;11.50;6.05;;;6.80;99.90;;;;;;7380148;19;20014;-70
2023/12/27 03:49:09;;;;;;;8.13;6.30;;;6.80;99.90;;;;;;7378863;19;20390;-70
2023/12/27 03:51:40;;;;;;;9.27;5.82;;;6.90;99.90;;;;;;7379773;19;20109;-71
2023/12/27 03:54:07;;;;;;;8.57;5.85;;;6.90;99.90;;;;;;7379250;19;20761;-69
2023/12/27 03:56:40;;;;;;;7.53;5.65;;;6.90;99.90;;;;;;7379244;19;20104;-70
2023/12/27 03:59:10;;;;;;;8.25;5.80;;;6.90;99.90;;;;;;7379462;19;20010;-69
2023/12/27 04:01:40;;;;;;;9.10;5.95;;;6.90;99.90;;;;;;7379489;19;20619;-70
2023/12/27 04:04:10;;;;;;;9.52;6.32;;;6.90;99.90;;;;;;7379751;19;20010;-70
2023/12/27 04:06:40;;;;;;;10.30;6.28;;;6.90;99.90;;;;;;7379562;19;20011;-70
2023/12/27 04:09:10;;;;;;;9.07;6.22;;;7.00;99.90;;;;;;7378363;19;20022;-70
2023/12/27 04:11:48;;;;;;;7.07;5.88;;;7.00;99.90;;;;;;7379041;19;20485;-69
2023/12/27 04:14:18;;;;;;;7.78;5.78;;;7.10;99.90;;;;;;7378167;19;20011;-70
2023/12/27 04:16:49;;;;;;;9.32;5.63;;;7.10;99.90;;;;;;7383280;19;20018;-70
2023/12/27 04:19:20;;;;;;;6.90;4.72;;;7.10;99.90;;;;;;7377227;19;20021;-71
2023/12/27 04:21:51;;;;;;;5.25;4.00;;;7.10;99.90;;;;;;7373693;19;20007;-71
2023/12/27 04:24:22;;;;;;;5.28;4.53;;;7.10;99.90;;;;;;7375606;19;20456;-70
2023/12/27 04:26:55;;;;;;;5.47;3.90;;;7.20;99.90;;;;;;7374403;19;20010;-70
2023/12/27 04:29:26;;;;;;;6.43;4.43;;;7.20;99.90;;;;;;7377160;19;20007;-71
2023/12/27 04:31:56;;;;;;;6.45;4.18;;;7.20;99.90;;;;;;7376093;19;20002;-71
2023/12/27 04:34:26;;;;;;;6.97;3.90;;;7.30;99.90;;;;;;7378156;19;20031;-71
2023/12/27 04:36:56;;;;;;;7.10;4.05;;;7.20;99.90;;;;;;7378517;19;20010;-71
2023/12/27 04:39:27;;;;;;;5.75;4.03;;;7.20;99.90;;;;;;7378044;19;20010;-70
2023/12/27 04:41:59;;;;;;;7.22;4.47;;;7.30;99.90;;;;;;7377445;19;20010;-71
2023/12/27 04:44:29;;;;;;;4.70;3.67;;;7.30;99.90;;;;;;7377833;19;20010;-71
2023/12/27 04:46:59;;;;;;;7.65;4.18;;;7.30;99.90;;;;;;7377944;19;20459;-70
2023/12/27 04:49:29;;;;;;;6.60;3.92;;;7.30;99.90;;;;;;7377420;19;20089;-70
2023/12/27 04:52:01;;;;;;;5.13;3.42;;;7.30;99.90;;;;;;7378096;19;20010;-70
2023/12/27 04:54:31;;;;;;;6.93;3.75;;;7.40;99.90;;;;;;7377705;19;20014;-70
2023/12/27 04:57:04;;;;;;;5.43;3.75;;;7.40;99.90;;;;;;7378292;19;20009;-70
2023/12/27 04:59:34;;;;;;;5.75;3.65;;;7.40;99.90;;;;;;7378077;19;20006;-71
2023/12/27 05:02:04;;;;;;;5.68;3.60;;;7.40;99.90;;;;;;7373038;19;20036;-71
2023/12/27 05:04:35;;;;;;;5.85;3.53;;;7.40;99.90;;;;;;7376605;19;20018;-71
2023/12/27 05:07:05;;;;;;;5.03;3.42;;;7.40;99.90;;;;;;7378101;19;20018;-71
2023/12/27 05:09:35;;;;;;;7.63;3.40;;;7.50;99.90;;;;;;7377599;19;20127;-70
2023/12/27 05:12:09;;;;;;;6.18;3.70;;;7.50;99.90;;;;;;7378644;19;20086;-71
2023/12/27 05:14:39;;;;;;;4.35;3.17;;;7.50;99.90;;;;;;7378861;19;20041;-71
2023/12/27 05:17:09;;;;;;;8.15;3.70;;;7.50;99.90;;;;;;7378222;19;20382;-71
2023/12/27 05:19:40;;;;;;;4.60;3.30;;;7.50;99.90;;;;;;7378274;19;20007;-70
2023/12/27 05:22:10;;;;;;;6.35;3.70;;;7.50;99.90;;;;;;7372346;19;20006;-71
2023/12/27 05:24:40;;;;;;;5.95;3.25;;;7.60;99.90;;;;;;7376049;19;20014;-71
2023/12/27 05:27:13;;;;;;;7.97;3.40;;;7.50;96.40;;;;;;7377565;19;20474;-71
2023/12/27 05:29:43;;;;;;;5.07;3.25;;;7.60;95.60;;;;;;7375961;19;20002;-72
2023/12/27 05:32:13;;;;;;;6.15;3.40;;;7.60;91.60;;;;;;7376248;19;20021;-71
2023/12/27 05:34:43;;;;;;;4.45;2.95;;;7.50;90.40;;;;;;7374909;19;20010;-71
2023/12/27 05:37:14;;;;;;;5.38;3.20;;;7.50;90.20;;;;;;7376101;19;20010;-71
2023/12/27 05:39:44;;;;;;;7.28;3.95;;;7.40;89.20;;;;;;7375496;19;20017;-72
2023/12/27 05:42:16;;;;;;;8.15;4.40;;;7.40;92.00;;;;;;7375332;19;20035;-71
2023/12/27 05:44:46;;;;;;;8.13;3.97;;;7.40;97.10;;;;;;7375611;19;20018;-71
2023/12/27 05:47:16;;;;;;;4.43;3.50;;;7.40;99.90;;;;;;7376019;19;20014;-71
2023/12/27 05:49:46;;;;;;;6.65;3.83;;;7.30;99.90;;;;;;7373367;19;20003;-71
2023/12/27 05:52:17;;;;;;;8.25;3.60;;;7.30;99.90;;;;;;7374912;19;20478;-70
2023/12/27 05:54:47;;;;;;;4.32;3.75;;;7.30;99.90;;;;;;7374137;19;20006;-69
2023/12/27 05:57:19;;;;;;;6.43;3.80;;;7.30;99.90;;;;;;7375139;19;20027;-70
2023/12/27 05:59:51;;;;;;;6.95;3.83;;;7.30;99.90;;;;;;7373119;19;20065;-69
2023/12/27 06:02:21;;;;;;;6.55;3.53;;;7.30;99.90;;;;;;7375188;19;20398;-71
2023/12/27 06:04:51;;;;;;;8.63;3.60;;;7.30;99.90;;;;;;7374697;19;20018;-70
2023/12/27 06:07:21;;;;;;;8.07;3.53;;;7.30;99.90;;;;;;7373667;19;20050;-70
2023/12/27 06:09:51;;;;;;;7.80;4.22;;;7.30;99.90;;;;;;7373156;19;20606;-70
2023/12/27 06:12:24;;;;;;;6.05;4.35;;;7.30;99.90;;;;;;7374471;19;20027;-70
2023/12/27 06:14:54;;;;;;;6.18;4.45;;;7.20;99.90;;;;;;7375184;19;20031;-69
2023/12/27 06:17:24;;;;;;;8.20;4.50;;;7.10;99.90;;;;;;7374553;19;20379;-70
2023/12/27 06:19:54;;;;;;;6.95;4.93;;;7.10;99.90;;;;;;7373273;19;20006;-70
2023/12/27 06:22:24;;;;;;;9.57;6.00;;;7.10;99.90;;;;;;7375070;19;20021;-70
2023/12/27 06:24:54;;;;;;;10.32;6.43;;;7.00;99.90;;;;;;7374740;19;20493;-71
2023/12/27 06:27:26;;;;;;;10.80;6.93;;;7.00;99.90;;;;;;7374650;19;20003;-70
2023/12/27 06:29:57;;;;;;;9.05;6.93;;;7.00;99.90;;;;;;7373363;19;20015;-71
2023/12/27 06:32:27;;;;;;;10.50;7.15;;;6.90;99.90;;;;;;7373676;19;20015;-70
2023/12/27 06:34:57;;;;;;;10.82;6.53;;;6.90;99.90;;;;;;7374348;19;20471;-70
2023/12/27 06:37:27;;;;;;;7.68;5.70;;;6.90;99.90;;;;;;7373699;19;20015;-71
2023/12/27 06:39:57;;;;;;;7.50;5.82;;;6.90;99.90;;;;;;7375043;19;20018;-70
2023/12/27 06:42:29;;;;;;;7.72;5.53;;;6.80;99.90;;;;;;7378453;19;20010;-71
2023/12/27 06:44:59;;;;;;;10.23;5.70;;;6.80;99.90;;;;;;7372781;19;20021;-70
2023/12/27 06:47:29;;;;;;;7.47;5.53;;;6.80;99.90;;;;;;7374394;19;20493;-70
2023/12/27 06:49:59;;;;;;;10.75;5.70;;;6.80;99.90;;;;;;7372721;19;20071;-71
2023/12/27 06:52:30;;;;;;;11.73;6.57;;;6.80;99.90;;;;;;7373576;19;20133;-69
2023/12/27 06:55:00;;;;;;;7.82;5.53;;;6.70;99.90;;;;;;7373631;19;20505;-70
2023/12/27 06:57:32;;;;;;;9.63;6.25;;;6.70;99.90;;;;;;7374331;19;20014;-71
2023/12/27 07:00:02;;;;;;;10.88;6.95;;;6.70;99.90;;;;;;7373536;19;20010;-71
2023/12/27 07:02:33;;;;;;;25.45;15.48;;;6.70;99.90;;;;;;7373279;19;20066;-71
2023/12/27 07:05:03;;;;;;;12.27;6.88;;;6.70;99.90;;;;;;7373345;19;20007;-71
2023/12/27 07:07:33;;;;;;;11.07;6.22;;;6.70;99.90;;;;;;7372768;19;20019;-71
2023/12/27 07:10:04;;;;;;;10.15;6.72;;;6.70;99.90;;;;;;7372953;19;20086;-71
2023/12/27 07:12:36;;;;;;;11.95;7.10;;;6.70;99.90;;;;;;7373030;19;20015;-71
2023/12/27 07:15:10;;;;;;;8.38;6.00;;;6.70;99.90;;;;;;7372832;19;20851;-71
2023/12/27 07:17:40;;;;;;;10.15;5.72;;;6.80;99.90;;;;;;7372246;19;20015;-70
2023/12/27 07:20:12;;;;;;;11.30;6.03;;;6.80;99.90;;;;;;7377647;19;20007;-70
2023/12/27 07:22:42;;;;;;;11.25;6.28;;;6.80;99.90;;;;;;7380131;19;20081;-71
2023/12/27 07:25:12;;;;;;;7.60;5.32;;;6.80;99.90;;;;;;7380967;19;20601;-69
2023/12/27 07:27:45;;;;;;;8.88;5.82;;;6.70;99.90;;;;;;7379815;19;20018;-70
2023/12/27 07:30:17;;;;;;;12.23;6.50;;;6.80;99.90;;;;;;7381368;19;20470;-71
2023/12/27 07:32:47;;;;;;;10.23;5.30;;;6.80;99.90;;;;;;7380075;19;20761;-70
2023/12/27 07:35:17;;;;;;;11.45;6.25;;;6.90;99.90;;;;;;7380188;19;20085;-72
2023/12/27 07:37:48;;;;;;;11.18;6.25;;;6.80;99.90;;;;;;7379795;19;20007;-71
2023/12/27 07:40:18;;;;;;;9.85;5.75;;;6.90;99.90;;;;;;7377682;19;20481;-70
2023/12/27 07:42:51;;;;;;;10.93;5.95;;;6.90;99.90;;;;;;7379119;19;20021;-70
2023/12/27 07:45:22;;;;;;;9.32;6.28;;;6.90;99.90;;;;;;7377988;19;20017;-71
2023/12/27 07:47:52;;;;;;;10.13;5.45;;;6.90;99.90;;;;;;7377533;19;20699;-71
2023/12/27 07:50:23;;;;;;;12.50;7.10;;;6.80;99.90;;;;;;7378878;19;20073;-71
2023/12/27 07:52:53;;;;;;;9.00;5.85;;;6.80;99.90;;;;;;7379065;19;20011;-70
2023/12/27 07:55:22;;;;;;;7.38;5.30;;;6.90;99.90;;;;;;7377545;19;20043;-72
2023/12/27 07:57:55;;;;;;;9.38;5.60;;;6.90;99.90;;;;;;7377918;19;20014;-71
2023/12/27 08:00:25;;;;;;;9.55;5.70;;;7.00;99.90;;;;;;7377054;19;20070;-70
2023/12/27 08:02:56;;;;;;;9.95;6.68;;;6.90;99.90;;;;;;7377483;19;20014;-70
2023/12/27 08:05:27;;;;;;;9.70;6.40;;;7.10;99.90;;;;;;7374851;19;20015;-70
2023/12/27 08:07:57;;;;;;;12.45;5.90;;;7.10;99.90;;;;;;7374687;19;20013;-71
2023/12/27 08:10:28;;;;;;;12.45;5.50;;;7.10;99.90;;;;;;7377301;19;20026;-70
2023/12/27 08:13:03;;;;;;;9.82;5.43;;;7.10;99.90;;;;;;7373137;19;20057;-70
2023/12/27 08:15:34;;;;;;;7.70;5.15;;;7.10;99.90;;;;;;7374817;19;20014;-71
2023/12/27 08:18:05;;;;;;;8.68;5.07;;;7.10;99.90;;;;;;7370538;19;20473;-70
2023/12/27 08:20:35;;;;;;;7.30;5.25;;;7.10;99.90;;;;;;7378316;19;20015;-71
2023/12/27 08:23:06;;;;;;;6.90;4.78;;;7.00;99.90;;;;;;7377500;19;20133;-71
2023/12/27 08:25:37;;;;;;;7.57;5.00;;;7.10;99.90;;;;;;7377355;19;20031;-72
2023/12/27 08:28:10;;;;;;;7.65;5.40;;;7.00;99.90;;;;;;7377739;19;20023;-70
2023/12/27 08:30:40;;;;;;;8.48;5.40;;;7.10;99.90;;;;;;7377821;19;20037;-71
2023/12/27 08:33:11;;;;;;;7.20;5.30;;;7.20;99.90;;;;;;7378972;19;20061;-71
2023/12/27 08:35:41;;;;;;;7.78;5.03;;;7.30;99.90;;;;;;7378997;19;20011;-71
2023/12/27 08:38:11;;;;;;;8.73;5.07;;;7.20;96.60;;;;;;7378266;19;20049;-70
2023/12/27 08:40:41;;;;;;;8.20;5.10;;;7.30;96.10;;;;;;7378967;19;20018;-70
2023/12/27 08:43:14;;;;;;;7.45;5.00;;;7.40;95.50;;;;;;7378316;19;20075;-71
2023/12/27 08:45:44;;;;;;;8.23;5.22;;;7.50;92.70;;;;;;7378174;19;20010;-70
2023/12/27 08:48:14;;;;;;;9.30;6.03;;;7.40;84.30;;;;;;7378671;19;20018;-72
2023/12/27 08:50:45;;;;;;;7.28;5.63;;;7.50;75.00;;;;;;7379286;19;20038;-69
2023/12/27 08:53:15;;;;;;;8.75;6.50;;;7.50;65.10;;;;;;7379502;19;20013;-71
2023/12/27 08:55:45;;;;;;;10.60;6.43;;;7.50;67.60;;;;;;7379616;19;20370;-72
2023/12/27 08:58:18;;;;;;;7.80;5.75;;;7.50;58.50;;;;;;7378101;19;20002;-72
2023/12/27 09:00:48;;;;;;;10.10;6.63;;;7.50;55.00;;;;;;7380286;19;20015;-71
2023/12/27 09:03:18;;;;;;;9.48;5.80;;;7.60;52.20;;;;;;7379694;19;20014;-71
2023/12/27 09:05:49;;;;;;;10.02;5.47;;;7.70;46.40;;;;;;7382058;19;20014;-71
2023/12/27 09:08:19;;;;;;;14.68;5.70;;;7.80;34.40;;;;;;7378733;19;20088;-70
2023/12/27 09:10:49;;;;;;;6.82;5.20;;;7.90;24.70;;;;;;7378343;19;20018;-71
2023/12/27 09:13:21;;;;;;;6.78;5.10;;;7.90;19.40;;;;;;7378276;19;20018;-70
2023/12/27 09:15:51;;;;;;;8.60;5.18;;;7.90;12.90;;;;;;7377647;19;20502;-70
2023/12/27 09:18:21;;;;;;;7.53;4.75;;;7.80;8.10;;;;;;7376027;19;20018;-71
2023/12/27 09:20:52;;;;;;;7.18;4.78;;;7.80;5.70;;;;;;7374120;19;20010;-71
2023/12/27 09:23:22;;;;;;;7.57;4.60;;;7.80;2.90;;;;;;7376537;19;20018;-71
2023/12/27 09:25:52;;;;;;;6.57;4.88;;;7.90;3.80;;;;;;7377505;19;20017;-71
2023/12/27 09:28:25;;;;;;;6.30;4.90;;;7.80;1.00;;;;;;7378812;19;20010;-70
2023/12/27 09:30:55;;;;;;;6.50;4.57;;;7.90;1.00;;;;;;7377109;19;20011;-72
2023/12/27 09:33:25;;;;;;;5.65;4.30;;;7.90;1.00;;;;;;7377398;19;20402;-72
2023/12/27 09:35:57;;;;;;;15.98;9.93;;;7.90;1.00;;;;;;7375413;19;20521;-70
2023/12/27 09:38:27;;;;;;;7.57;4.82;;;7.90;1.00;;;;;;7378144;19;20348;-71
2023/12/27 09:40:58;;;;;;;7.28;4.88;;;7.80;1.00;;;;;;7374991;19;20017;-71
2023/12/27 09:43:30;;;;;;;6.38;4.68;;;7.90;1.00;;;;;;7374009;19;20013;-70
2023/12/27 09:46:02;;;;;;;7.05;4.80;;;8.10;1.00;;;;;;7377189;19;20050;-70
2023/12/27 09:48:33;;;;;;;8.63;4.72;;;8.10;1.00;;;;;;7376106;19;20383;-71
2023/12/27 09:51:04;;;;;;;7.50;4.72;;;8.10;1.00;;;;;;7376916;19;20053;-70
2023/12/27 09:53:35;;;;;;;7.53;4.10;;;8.10;1.00;;;;;;7375826;19;20041;-71
2023/12/27 09:56:06;;;;;;;6.32;4.20;;;8.20;1.00;;;;;;7377576;19;20017;-71
2023/12/27 09:58:39;;;;;;;10.52;4.50;;;8.30;1.00;;;;;;7377274;19;20010;-70
2023/12/27 10:01:12;;;;;;;7.75;4.50;;;8.40;1.00;;;;;;7376489;19;20022;-71
2023/12/27 10:03:46;;;;;;;7.38;4.78;;;8.40;1.00;;;;;;7375813;19;20622;-71
2023/12/27 10:06:28;;;;;;;8.23;4.25;;;8.50;1.00;;;;;;7377712;19;20025;-71
2023/12/27 10:08:58;;;;;;;8.15;4.78;;;8.60;1.00;;;;;;7373020;19;19998;-71
2023/12/27 10:11:30;;;;;;;5.50;4.28;;;8.70;1.00;;;;;;7378321;19;20018;-71
2023/12/27 10:14:04;;;;;;;7.68;4.15;;;8.80;1.00;;;;;;7375584;19;20039;-73
2023/12/27 10:16:35;;;;;;;8.50;3.85;;;8.80;1.00;;;;;;7376374;19;20017;-70
2023/12/27 10:19:07;;;;;;;6.30;3.83;;;9.00;1.00;;;;;;7375981;19;20635;-70
2023/12/27 10:21:45;;;;;;;6.65;3.80;;;9.00;1.00;;;;;;7376164;19;20126;-71
2023/12/27 10:24:13;;;;;;;4.85;3.72;;;9.20;1.00;;;;;;7376565;19;20033;-71
2023/12/27 10:26:43;;;;;;;8.18;4.13;;;9.10;1.00;;;;;;7376303;19;20804;-71
2023/12/27 10:29:17;;;;;;;7.45;3.83;;;9.20;1.00;;;;;;7376003;19;20053;-71
2023/12/27 10:31:53;;;;;;;5.95;3.90;;;9.20;1.00;;;;;;7367946;19;20052;-72
2023/12/27 10:34:25;;;;;;;20.10;4.78;;;9.10;1.00;;;;;;7363637;19;20007;-70
2023/12/27 10:36:56;;;;;;;7.47;3.90;;;9.10;1.00;;;;;;7374586;19;20085;-70
2023/12/27 10:39:27;;;;;;;7.32;4.07;;;9.20;1.00;;;;;;7371251;19;20014;-70
2023/12/27 10:41:57;;;;;;;8.43;4.13;;;9.30;1.00;;;;;;7375069;19;20037;-70
2023/12/27 10:44:32;;;;;;;6.53;3.63;;;9.50;1.00;;;;;;7376540;19;20027;-70
2023/12/27 10:47:07;;;;;;;7.75;4.18;;;9.50;1.00;;;;;;7371287;19;20089;-71
2023/12/27 10:49:39;;;;;;;7.50;3.67;;;9.40;1.00;;;;;;7362092;19;20010;-71
2023/12/27 10:52:11;;;;;;;5.88;3.70;;;9.60;1.00;;;;;;7368484;19;20492;-70
2023/12/27 10:54:47;;;;;;;8.95;3.88;;;9.80;1.00;;;;;;7375056;19;20024;-71
2023/12/27 10:57:21;;;;;;;6.25;3.97;;;9.90;1.00;;;;;;7378049;19;20018;-70
2023/12/27 10:59:55;;;;;;;6.45;3.22;;;9.90;1.00;;;;;;7376511;19;20034;-70
2023/12/27 11:02:28;;;;;;;7.30;4.03;;;9.80;1.00;;;;;;7378464;19;20113;-70
2023/12/27 11:04:58;;;;;;;9.23;3.58;;;9.90;1.00;;;;;;7379044;19;20585;-71
2023/12/27 11:07:32;;;;;;;6.00;3.60;;;9.80;1.00;;;;;;7381649;19;20017;-71
2023/12/27 11:10:06;;;;;;;8.15;3.72;;;9.60;1.00;;;;;;7379211;19;20034;-71
2023/12/27 11:12:40;;;;;;;8.32;3.90;;;9.70;1.00;;;;;;7382156;19;20006;-71
2023/12/27 11:15:15;;;;;;;6.10;3.83;;;9.90;1.00;;;;;;7380641;19;20079;-71
2023/12/27 11:17:46;;;;;;;10.98;5.88;;;10.00;1.00;;;;;;7379738;19;20011;-70
2023/12/27 11:20:19;;;;;;;5.10;3.00;;;10.10;1.00;;;;;;7380628;19;20415;-71
2023/12/27 11:22:50;;;;;;;5.65;3.65;;;10.10;1.00;;;;;;7381204;19;20006;-70
2023/12/27 11:25:20;;;;;;;5.53;3.10;;;10.10;1.00;;;;;;7379533;19;20086;-71
2023/12/27 11:27:52;;;;;;;5.95;2.95;;;10.10;1.00;;;;;;7380918;19;20006;-71
2023/12/27 11:30:28;;;;;;;4.18;3.08;;;10.20;1.00;;;;;;7382773;19;20014;-72
2023/12/27 11:32:59;;;;;;;6.93;3.40;;;10.20;1.00;;;;;;7382175;19;20048;-71
2023/12/27 11:35:31;;;;;;;5.35;3.15;;;10.40;1.00;;;;;;7378402;19;20492;-71
2023/12/27 11:38:18;;;;;;;7.65;3.88;;;10.10;1.00;;;;;;7378331;19;20040;-70
2023/12/27 11:40:48;;;;;;;4.72;3.33;;;10.30;1.00;;;;;;7376385;19;20018;-71
2023/12/27 11:43:23;;;;;;;6.00;3.33;;;10.40;1.00;;;;;;7379961;19;20071;-71
2023/12/27 11:46:03;;;;;;;7.28;3.58;;;10.60;1.00;;;;;;7379034;19;20085;-71
2023/12/27 11:48:35;;;;;;;5.80;4.03;;;10.50;1.00;;;;;;7379295;19;20002;-71
2023/12/27 11:51:27;;;;;;;4.95;3.35;;;10.60;1.00;;;;;;7379398;19;20010;-71
2023/12/27 11:53:58;;;;;;;6.40;3.60;;;10.30;1.00;;;;;;6867374;19;2004801;-71
2023/12/27 11:56:32;;;;;;;6.68;3.30;;;10.60;1.00;;;;;;7378006;19;20425;-71
2023/12/27 11:59:08;;;;;;;5.65;3.30;;;10.50;1.00;;;;;;7378893;19;20021;-70
2023/12/27 12:01:43;;;;;;;6.60;3.10;;;10.50;1.00;;;;;;7381120;19;20026;-71
2023/12/27 12:04:31;;;;;;;4.70;3.03;;;10.60;1.00;;;;;;7373224;19;20400;-71
2023/12/27 12:07:22;;;;;;;7.10;3.40;;;10.70;1.00;;;;;;7378801;19;20026;-72
2023/12/27 12:09:52;;;;;;;6.28;3.30;;;10.80;1.00;;;;;;6867522;19;2004863;-71
2023/12/27 12:12:23;;;;;;;6.88;3.78;;;10.70;1.00;;;;;;7377914;19;20455;-71
2023/12/27 12:14:55;;;;;;;6.47;3.40;;;10.80;1.00;;;;;;7378541;19;20393;-70
2023/12/27 12:17:30;;;;;;;5.00;3.05;;;10.80;1.00;;;;;;7379326;19;20018;-71
2023/12/27 12:20:01;;;;;;;5.00;3.20;;;10.80;1.00;;;;;;7379081;19;20047;-71
2023/12/27 12:22:31;;;;;;;9.68;3.25;;;10.80;1.00;;;;;;7376126;19;20091;-71
2023/12/27 12:25:08;;;;;;;7.28;2.78;;;10.80;1.00;;;;;;7373653;19;20095;-72
2023/12/27 12:27:42;;;;;;;8.05;3.08;;;10.80;1.00;;;;;;7377972;19;20014;-70
2023/12/27 12:30:13;;;;;;;;;;;10.90;1.00;;;;;;7379382;19;20006;-70
2023/12/27 12:32:45;;;;;;;7.40;3.47;;;10.90;1.00;;;;;;7379297;19;19926;-71
2023/12/27 12:35:16;;;;;;;5.45;3.10;;;10.80;1.00;;;;;;7376136;19;20093;-70
2023/12/27 12:37:47;;;;;;;7.20;3.50;;;10.90;1.00;;;;;;7377317;19;20010;-71
2023/12/27 12:40:18;;;;;;;7.43;3.53;;;11.00;1.00;;;;;;7379182;19;20007;-71
2023/12/27 12:42:48;;;;;;;6.47;3.70;;;11.00;1.00;;;;;;7379002;19;20010;-71
2023/12/27 12:45:20;;;;;;;5.60;3.10;;;11.00;1.00;;;;;;7378435;19;20007;-71
2023/12/27 12:47:53;;;;;;;4.50;2.80;;;11.00;1.00;;;;;;7380127;19;20078;-72
2023/12/27 12:50:23;;;;;;;15.35;8.23;;;11.00;1.00;;;;;;7379553;19;20755;-70
2023/12/27 12:52:54;;;;;;;11.50;7.25;;;11.10;1.00;;;;;;7379678;19;20818;-71
2023/12/27 12:55:28;;;;;;;5.40;2.80;;;11.20;1.00;;;;;;7377326;19;20030;-71
2023/12/27 12:57:59;;;;;;;4.72;2.83;;;11.00;1.00;;;;;;7378240;19;20018;-71
2023/12/27 13:00:30;;;;;;;3.53;2.30;;;11.00;1.00;;;;;;7378738;19;20010;-70
2023/12/27 13:03:05;;;;;;;6.03;2.80;;;11.00;1.00;;;;;;7377887;19;20014;-71
2023/12/27 13:05:36;;;;;;;4.68;2.60;;;11.00;1.00;;;;;;7377417;19;20102;-70
2023/12/27 13:08:08;;;;;;;6.43;3.33;;;11.00;1.00;;;;;;7376819;19;20022;-70
2023/12/27 13:10:39;;;;;;;3.85;2.83;;;10.90;1.00;;;;;;7378398;19;20057;-70
2023/12/27 13:13:09;;;;;;;5.13;3.03;;;10.90;1.00;;;;;;7377129;19;20010;-72
2023/12/27 13:15:39;;;;;;;5.95;3.20;;;10.90;1.00;;;;;;7377511;19;20014;-70
2023/12/27 13:18:12;;;;;;;5.20;2.78;;;10.90;1.00;;;;;;7375659;19;20396;-71